sensor_id;sensor_type;location;lat;lon;timestamp;P1;durP1;ratioP1;P2;durP2;ratioP2
44328;SDS011;30039;51.462;6.892;2022-11-30T00:00:04;49.72;;;17.58;;
44328;SDS011;30039;51.462;6.892;2022-11-30T00:02:52;45.10;;;17.75;;
44328;SDS011;30039;51.462;6.892;2022-11-30T00:05:39;54.13;;;18.35;;
44328;SDS011;30039;51.462;6.892;2022-11-30T00:08:25;47.47;;;17.52;;
44328;SDS011;30039;51.462;6.892;2022-11-30T00:11:14;45.92;;;18.40;;
44328;SDS011;30039;51.462;6.892;2022-11-30T00:14:02;49.30;;;17.83;;
44328;SDS011;30039;51.462;6.892;2022-11-30T00:16:47;42.65;;;16.33;;
44328;SDS011;30039;51.462;6.892;2022-11-30T00:19:33;45.22;;;16.95;;
44328;SDS011;30039;51.462;6.892;2022-11-30T00:22:19;45.00;;;16.77;;
44328;SDS011;30039;51.462;6.892;2022-11-30T00:25:05;40.45;;;16.48;;
44328;SDS011;30039;51.462;6.892;2022-11-30T00:27:52;38.03;;;15.80;;
44328;SDS011;30039;51.462;6.892;2022-11-30T00:30:40;43.85;;;16.23;;
44328;SDS011;30039;51.462;6.892;2022-11-30T00:33:26;51.35;;;17.95;;
44328;SDS011;30039;51.462;6.892;2022-11-30T00:38:57;52.05;;;17.27;;
44328;SDS011;30039;51.462;6.892;2022-11-30T00:41:43;50.65;;;17.80;;
44328;SDS011;30039;51.462;6.892;2022-11-30T00:44:29;49.92;;;18.30;;
44328;SDS011;30039;51.462;6.892;2022-11-30T00:47:14;52.45;;;18.58;;
44328;SDS011;30039;51.462;6.892;2022-11-30T00:50:01;51.13;;;18.70;;
44328;SDS011;30039;51.462;6.892;2022-11-30T00:52:46;55.72;;;18.90;;
44328;SDS011;30039;51.462;6.892;2022-11-30T00:55:33;52.75;;;19.92;;
44328;SDS011;30039;51.462;6.892;2022-11-30T00:58:19;48.55;;;18.67;;
44328;SDS011;30039;51.462;6.892;2022-11-30T01:01:05;48.58;;;17.05;;
44328;SDS011;30039;51.462;6.892;2022-11-30T01:03:51;47.58;;;17.70;;
44328;SDS011;30039;51.462;6.892;2022-11-30T01:06:37;49.60;;;17.70;;
44328;SDS011;30039;51.462;6.892;2022-11-30T01:09:23;50.72;;;17.33;;
44328;SDS011;30039;51.462;6.892;2022-11-30T01:12:09;47.03;;;16.77;;
44328;SDS011;30039;51.462;6.892;2022-11-30T01:14:55;50.13;;;18.65;;
44328;SDS011;30039;51.462;6.892;2022-11-30T01:17:41;52.10;;;17.88;;
44328;SDS011;30039;51.462;6.892;2022-11-30T01:20:28;49.25;;;17.85;;
44328;SDS011;30039;51.462;6.892;2022-11-30T01:23:13;55.53;;;18.60;;
44328;SDS011;30039;51.462;6.892;2022-11-30T01:25:59;57.53;;;18.40;;
44328;SDS011;30039;51.462;6.892;2022-11-30T01:28:48;50.90;;;19.08;;
44328;SDS011;30039;51.462;6.892;2022-11-30T01:31:34;53.15;;;18.67;;
44328;SDS011;30039;51.462;6.892;2022-11-30T01:34:21;57.88;;;18.52;;
44328;SDS011;30039;51.462;6.892;2022-11-30T01:37:06;50.40;;;18.65;;
44328;SDS011;30039;51.462;6.892;2022-11-30T01:39:52;45.00;;;18.20;;
44328;SDS011;30039;51.462;6.892;2022-11-30T01:42:44;33.47;;;14.73;;
44328;SDS011;30039;51.462;6.892;2022-11-30T01:45:30;36.03;;;16.05;;
44328;SDS011;30039;51.462;6.892;2022-11-30T01:48:15;30.50;;;14.65;;
44328;SDS011;30039;51.462;6.892;2022-11-30T01:51:02;29.30;;;15.10;;
44328;SDS011;30039;51.462;6.892;2022-11-30T01:53:48;28.55;;;14.30;;
44328;SDS011;30039;51.462;6.892;2022-11-30T01:56:34;31.52;;;15.35;;
44328;SDS011;30039;51.462;6.892;2022-11-30T01:59:21;31.98;;;14.82;;
44328;SDS011;30039;51.462;6.892;2022-11-30T02:02:08;35.83;;;16.13;;
44328;SDS011;30039;51.462;6.892;2022-11-30T02:04:54;34.00;;;15.88;;
44328;SDS011;30039;51.462;6.892;2022-11-30T02:07:39;33.70;;;16.63;;
44328;SDS011;30039;51.462;6.892;2022-11-30T02:10:26;33.35;;;15.50;;
44328;SDS011;30039;51.462;6.892;2022-11-30T02:21:40;34.05;;;16.65;;
44328;SDS011;30039;51.462;6.892;2022-11-30T02:30:30;34.58;;;16.83;;
44328;SDS011;30039;51.462;6.892;2022-11-30T02:33:20;30.20;;;14.82;;
44328;SDS011;30039;51.462;6.892;2022-11-30T02:36:08;30.02;;;14.85;;
44328;SDS011;30039;51.462;6.892;2022-11-30T02:38:54;26.20;;;14.65;;
44328;SDS011;30039;51.462;6.892;2022-11-30T02:41:40;27.85;;;14.10;;
44328;SDS011;30039;51.462;6.892;2022-11-30T02:44:26;27.85;;;14.80;;
44328;SDS011;30039;51.462;6.892;2022-11-30T02:50:12;27.15;;;13.98;;
44328;SDS011;30039;51.462;6.892;2022-11-30T02:52:59;28.98;;;14.18;;
44328;SDS011;30039;51.462;6.892;2022-11-30T02:55:45;30.38;;;14.05;;
44328;SDS011;30039;51.462;6.892;2022-11-30T02:58:31;27.15;;;13.63;;
44328;SDS011;30039;51.462;6.892;2022-11-30T03:01:17;27.60;;;15.13;;
44328;SDS011;30039;51.462;6.892;2022-11-30T03:04:03;28.75;;;14.10;;
44328;SDS011;30039;51.462;6.892;2022-11-30T03:06:49;31.20;;;14.45;;
44328;SDS011;30039;51.462;6.892;2022-11-30T03:09:35;29.58;;;15.23;;
44328;SDS011;30039;51.462;6.892;2022-11-30T03:12:20;30.83;;;15.50;;
44328;SDS011;30039;51.462;6.892;2022-11-30T03:15:06;33.78;;;16.05;;
44328;SDS011;30039;51.462;6.892;2022-11-30T03:17:52;29.27;;;14.63;;
44328;SDS011;30039;51.462;6.892;2022-11-30T03:20:41;31.42;;;16.05;;
44328;SDS011;30039;51.462;6.892;2022-11-30T03:23:29;29.00;;;14.07;;
44328;SDS011;30039;51.462;6.892;2022-11-30T03:26:21;31.52;;;15.85;;
44328;SDS011;30039;51.462;6.892;2022-11-30T03:29:07;35.10;;;15.68;;
44328;SDS011;30039;51.462;6.892;2022-11-30T03:31:53;31.50;;;15.35;;
44328;SDS011;30039;51.462;6.892;2022-11-30T03:34:40;32.88;;;15.82;;
44328;SDS011;30039;51.462;6.892;2022-11-30T03:37:26;38.40;;;16.88;;
44328;SDS011;30039;51.462;6.892;2022-11-30T03:40:12;31.98;;;15.85;;
44328;SDS011;30039;51.462;6.892;2022-11-30T03:42:58;32.13;;;16.70;;
44328;SDS011;30039;51.462;6.892;2022-11-30T03:45:44;34.95;;;16.75;;
44328;SDS011;30039;51.462;6.892;2022-11-30T03:48:29;34.55;;;17.52;;
44328;SDS011;30039;51.462;6.892;2022-11-30T03:51:17;34.67;;;16.48;;
44328;SDS011;30039;51.462;6.892;2022-11-30T03:54:02;34.00;;;18.05;;
44328;SDS011;30039;51.462;6.892;2022-11-30T03:56:48;35.50;;;16.83;;
44328;SDS011;30039;51.462;6.892;2022-11-30T03:59:34;37.63;;;17.52;;
44328;SDS011;30039;51.462;6.892;2022-11-30T04:02:19;35.15;;;16.48;;
44328;SDS011;30039;51.462;6.892;2022-11-30T04:05:05;34.55;;;16.65;;
44328;SDS011;30039;51.462;6.892;2022-11-30T04:07:51;32.75;;;16.80;;
44328;SDS011;30039;51.462;6.892;2022-11-30T04:10:37;35.05;;;17.85;;
44328;SDS011;30039;51.462;6.892;2022-11-30T04:13:23;33.58;;;17.48;;
44328;SDS011;30039;51.462;6.892;2022-11-30T04:16:09;33.95;;;17.23;;
44328;SDS011;30039;51.462;6.892;2022-11-30T04:18:55;31.15;;;16.83;;
44328;SDS011;30039;51.462;6.892;2022-11-30T04:21:41;33.55;;;16.92;;
44328;SDS011;30039;51.462;6.892;2022-11-30T04:24:26;33.28;;;17.13;;
44328;SDS011;30039;51.462;6.892;2022-11-30T04:27:12;34.60;;;16.45;;
44328;SDS011;30039;51.462;6.892;2022-11-30T04:29:58;33.45;;;17.30;;
44328;SDS011;30039;51.462;6.892;2022-11-30T04:32:44;28.15;;;15.85;;
44328;SDS011;30039;51.462;6.892;2022-11-30T04:35:32;26.90;;;14.75;;
44328;SDS011;30039;51.462;6.892;2022-11-30T04:38:17;31.50;;;15.88;;
44328;SDS011;30039;51.462;6.892;2022-11-30T04:41:06;26.00;;;14.55;;
44328;SDS011;30039;51.462;6.892;2022-11-30T04:43:52;26.67;;;14.43;;
44328;SDS011;30039;51.462;6.892;2022-11-30T04:46:38;28.33;;;14.73;;
44328;SDS011;30039;51.462;6.892;2022-11-30T04:49:25;30.70;;;16.30;;
44328;SDS011;30039;51.462;6.892;2022-11-30T04:52:10;27.88;;;14.82;;
44328;SDS011;30039;51.462;6.892;2022-11-30T04:54:57;29.08;;;14.60;;
44328;SDS011;30039;51.462;6.892;2022-11-30T04:57:43;25.38;;;13.40;;
44328;SDS011;30039;51.462;6.892;2022-11-30T05:00:29;29.23;;;14.88;;
44328;SDS011;30039;51.462;6.892;2022-11-30T05:03:14;28.80;;;14.57;;
44328;SDS011;30039;51.462;6.892;2022-11-30T05:06:00;26.38;;;13.70;;
44328;SDS011;30039;51.462;6.892;2022-11-30T05:08:46;24.90;;;14.02;;
44328;SDS011;30039;51.462;6.892;2022-11-30T05:11:32;31.75;;;14.93;;
44328;SDS011;30039;51.462;6.892;2022-11-30T05:14:18;27.80;;;14.40;;
44328;SDS011;30039;51.462;6.892;2022-11-30T05:17:03;28.80;;;15.18;;
44328;SDS011;30039;51.462;6.892;2022-11-30T05:19:50;31.17;;;15.50;;
44328;SDS011;30039;51.462;6.892;2022-11-30T05:22:36;30.08;;;14.32;;
44328;SDS011;30039;51.462;6.892;2022-11-30T05:25:22;26.30;;;14.63;;
44328;SDS011;30039;51.462;6.892;2022-11-30T05:28:07;28.35;;;15.02;;
44328;SDS011;30039;51.462;6.892;2022-11-30T05:30:53;29.27;;;14.85;;
44328;SDS011;30039;51.462;6.892;2022-11-30T05:33:39;26.15;;;13.18;;
44328;SDS011;30039;51.462;6.892;2022-11-30T05:36:25;25.88;;;14.10;;
44328;SDS011;30039;51.462;6.892;2022-11-30T05:39:11;30.77;;;15.05;;
44328;SDS011;30039;51.462;6.892;2022-11-30T05:41:56;26.83;;;13.90;;
44328;SDS011;30039;51.462;6.892;2022-11-30T05:44:42;27.98;;;14.80;;
44328;SDS011;30039;51.462;6.892;2022-11-30T05:47:29;27.85;;;14.27;;
44328;SDS011;30039;51.462;6.892;2022-11-30T05:50:15;27.30;;;13.85;;
44328;SDS011;30039;51.462;6.892;2022-11-30T05:53:00;30.10;;;15.70;;
44328;SDS011;30039;51.462;6.892;2022-11-30T05:55:46;26.80;;;14.20;;
44328;SDS011;30039;51.462;6.892;2022-11-30T05:58:32;27.38;;;13.82;;
44328;SDS011;30039;51.462;6.892;2022-11-30T06:01:25;26.58;;;13.40;;
44328;SDS011;30039;51.462;6.892;2022-11-30T06:04:11;27.08;;;14.10;;
44328;SDS011;30039;51.462;6.892;2022-11-30T06:06:57;26.00;;;13.55;;
44328;SDS011;30039;51.462;6.892;2022-11-30T06:09:42;25.95;;;13.50;;
44328;SDS011;30039;51.462;6.892;2022-11-30T06:12:28;26.33;;;14.38;;
44328;SDS011;30039;51.462;6.892;2022-11-30T06:15:14;24.92;;;13.60;;
44328;SDS011;30039;51.462;6.892;2022-11-30T06:17:59;27.63;;;14.15;;
44328;SDS011;30039;51.462;6.892;2022-11-30T06:20:46;22.88;;;13.32;;
44328;SDS011;30039;51.462;6.892;2022-11-30T06:23:32;26.70;;;14.73;;
44328;SDS011;30039;51.462;6.892;2022-11-30T06:26:18;26.70;;;15.70;;
44328;SDS011;30039;51.462;6.892;2022-11-30T06:29:04;25.88;;;14.50;;
44328;SDS011;30039;51.462;6.892;2022-11-30T06:31:51;27.30;;;14.23;;
44328;SDS011;30039;51.462;6.892;2022-11-30T06:34:37;25.58;;;14.15;;
44328;SDS011;30039;51.462;6.892;2022-11-30T06:37:23;26.15;;;13.98;;
44328;SDS011;30039;51.462;6.892;2022-11-30T06:40:10;28.75;;;14.73;;
44328;SDS011;30039;51.462;6.892;2022-11-30T06:42:56;27.25;;;13.82;;
44328;SDS011;30039;51.462;6.892;2022-11-30T06:45:42;28.83;;;15.25;;
44328;SDS011;30039;51.462;6.892;2022-11-30T06:48:28;26.42;;;13.82;;
44328;SDS011;30039;51.462;6.892;2022-11-30T06:51:13;30.40;;;14.63;;
44328;SDS011;30039;51.462;6.892;2022-11-30T06:53:59;26.48;;;13.98;;
44328;SDS011;30039;51.462;6.892;2022-11-30T06:56:45;24.40;;;14.90;;
44328;SDS011;30039;51.462;6.892;2022-11-30T06:59:30;28.15;;;15.40;;
44328;SDS011;30039;51.462;6.892;2022-11-30T07:02:16;30.52;;;15.98;;
44328;SDS011;30039;51.462;6.892;2022-11-30T07:05:02;25.88;;;14.68;;
44328;SDS011;30039;51.462;6.892;2022-11-30T07:07:48;30.10;;;15.00;;
44328;SDS011;30039;51.462;6.892;2022-11-30T07:10:37;30.75;;;15.52;;
44328;SDS011;30039;51.462;6.892;2022-11-30T07:13:24;28.45;;;14.70;;
44328;SDS011;30039;51.462;6.892;2022-11-30T07:16:10;32.38;;;15.95;;
44328;SDS011;30039;51.462;6.892;2022-11-30T07:18:56;28.65;;;15.73;;
44328;SDS011;30039;51.462;6.892;2022-11-30T07:21:42;26.48;;;15.00;;
44328;SDS011;30039;51.462;6.892;2022-11-30T07:24:27;30.85;;;15.77;;
44328;SDS011;30039;51.462;6.892;2022-11-30T07:27:34;29.77;;;15.43;;
44328;SDS011;30039;51.462;6.892;2022-11-30T07:30:20;27.77;;;14.90;;
44328;SDS011;30039;51.462;6.892;2022-11-30T07:33:05;36.92;;;16.90;;
44328;SDS011;30039;51.462;6.892;2022-11-30T07:35:52;31.52;;;16.15;;
44328;SDS011;30039;51.462;6.892;2022-11-30T07:38:38;29.40;;;16.05;;
44328;SDS011;30039;51.462;6.892;2022-11-30T07:41:24;28.75;;;14.85;;
44328;SDS011;30039;51.462;6.892;2022-11-30T07:44:10;31.77;;;16.00;;
44328;SDS011;30039;51.462;6.892;2022-11-30T07:46:58;27.75;;;15.32;;
44328;SDS011;30039;51.462;6.892;2022-11-30T07:49:45;35.70;;;15.80;;
44328;SDS011;30039;51.462;6.892;2022-11-30T07:52:31;32.38;;;15.60;;
44328;SDS011;30039;51.462;6.892;2022-11-30T07:55:17;29.77;;;15.00;;
44328;SDS011;30039;51.462;6.892;2022-11-30T07:58:04;29.13;;;15.35;;
44328;SDS011;30039;51.462;6.892;2022-11-30T08:00:50;29.67;;;16.08;;
44328;SDS011;30039;51.462;6.892;2022-11-30T08:03:36;32.67;;;16.13;;
44328;SDS011;30039;51.462;6.892;2022-11-30T08:06:23;30.08;;;15.68;;
44328;SDS011;30039;51.462;6.892;2022-11-30T08:09:11;28.63;;;15.63;;
44328;SDS011;30039;51.462;6.892;2022-11-30T08:11:57;29.95;;;15.18;;
44328;SDS011;30039;51.462;6.892;2022-11-30T08:14:43;27.58;;;15.15;;
44328;SDS011;30039;51.462;6.892;2022-11-30T08:17:28;31.67;;;15.88;;
44328;SDS011;30039;51.462;6.892;2022-11-30T08:20:14;29.73;;;15.80;;
44328;SDS011;30039;51.462;6.892;2022-11-30T08:23:00;31.58;;;15.85;;
44328;SDS011;30039;51.462;6.892;2022-11-30T08:25:47;31.48;;;14.82;;
44328;SDS011;30039;51.462;6.892;2022-11-30T08:28:33;32.05;;;15.93;;
44328;SDS011;30039;51.462;6.892;2022-11-30T08:31:25;32.25;;;17.13;;
44328;SDS011;30039;51.462;6.892;2022-11-30T08:34:12;29.65;;;15.68;;
44328;SDS011;30039;51.462;6.892;2022-11-30T08:36:58;31.88;;;15.70;;
44328;SDS011;30039;51.462;6.892;2022-11-30T08:39:44;37.22;;;19.48;;
44328;SDS011;30039;51.462;6.892;2022-11-30T08:42:29;31.92;;;16.48;;
44328;SDS011;30039;51.462;6.892;2022-11-30T08:45:15;33.03;;;15.40;;
44328;SDS011;30039;51.462;6.892;2022-11-30T08:48:01;31.88;;;16.55;;
44328;SDS011;30039;51.462;6.892;2022-11-30T08:50:46;29.88;;;16.05;;
44328;SDS011;30039;51.462;6.892;2022-11-30T08:53:32;31.77;;;15.82;;
44328;SDS011;30039;51.462;6.892;2022-11-30T08:56:19;33.38;;;16.98;;
44328;SDS011;30039;51.462;6.892;2022-11-30T08:59:05;35.92;;;16.80;;
44328;SDS011;30039;51.462;6.892;2022-11-30T09:01:52;30.88;;;16.05;;
44328;SDS011;30039;51.462;6.892;2022-11-30T09:04:38;34.92;;;17.25;;
44328;SDS011;30039;51.462;6.892;2022-11-30T09:07:24;30.55;;;16.48;;
44328;SDS011;30039;51.462;6.892;2022-11-30T09:10:10;31.80;;;16.75;;
44328;SDS011;30039;51.462;6.892;2022-11-30T09:12:56;31.20;;;16.25;;
44328;SDS011;30039;51.462;6.892;2022-11-30T09:15:54;31.50;;;16.85;;
44328;SDS011;30039;51.462;6.892;2022-11-30T09:18:41;29.80;;;15.68;;
44328;SDS011;30039;51.462;6.892;2022-11-30T09:21:27;31.35;;;16.38;;
44328;SDS011;30039;51.462;6.892;2022-11-30T09:24:13;30.30;;;15.77;;
44328;SDS011;30039;51.462;6.892;2022-11-30T09:26:59;31.80;;;16.15;;
44328;SDS011;30039;51.462;6.892;2022-11-30T09:29:44;29.85;;;16.13;;
44328;SDS011;30039;51.462;6.892;2022-11-30T09:32:30;32.55;;;16.58;;
44328;SDS011;30039;51.462;6.892;2022-11-30T09:35:16;32.28;;;16.95;;
44328;SDS011;30039;51.462;6.892;2022-11-30T09:38:02;35.45;;;17.50;;
44328;SDS011;30039;51.462;6.892;2022-11-30T09:40:55;36.92;;;17.27;;
44328;SDS011;30039;51.462;6.892;2022-11-30T09:43:46;32.75;;;16.75;;
44328;SDS011;30039;51.462;6.892;2022-11-30T09:46:47;33.17;;;16.63;;
44328;SDS011;30039;51.462;6.892;2022-11-30T09:49:35;32.08;;;16.20;;
44328;SDS011;30039;51.462;6.892;2022-11-30T09:52:38;36.13;;;16.40;;
44328;SDS011;30039;51.462;6.892;2022-11-30T09:55:33;31.67;;;16.65;;
44328;SDS011;30039;51.462;6.892;2022-11-30T09:58:22;29.00;;;16.08;;
44328;SDS011;30039;51.462;6.892;2022-11-30T10:01:12;29.88;;;15.70;;
44328;SDS011;30039;51.462;6.892;2022-11-30T10:04:00;34.50;;;15.63;;
44328;SDS011;30039;51.462;6.892;2022-11-30T10:09:50;31.98;;;16.58;;
44328;SDS011;30039;51.462;6.892;2022-11-30T10:12:58;36.40;;;16.85;;
44328;SDS011;30039;51.462;6.892;2022-11-30T10:15:48;32.03;;;15.48;;
44328;SDS011;30039;51.462;6.892;2022-11-30T10:18:40;30.98;;;16.30;;
44328;SDS011;30039;51.462;6.892;2022-11-30T10:21:38;34.40;;;16.20;;
44328;SDS011;30039;51.462;6.892;2022-11-30T10:27:16;32.15;;;16.48;;
44328;SDS011;30039;51.462;6.892;2022-11-30T10:30:05;34.83;;;16.65;;
44328;SDS011;30039;51.462;6.892;2022-11-30T10:32:58;35.35;;;16.45;;
44328;SDS011;30039;51.462;6.892;2022-11-30T10:35:51;35.95;;;15.65;;
44328;SDS011;30039;51.462;6.892;2022-11-30T10:38:55;33.80;;;16.05;;
44328;SDS011;30039;51.462;6.892;2022-11-30T10:41:43;32.45;;;15.45;;
44328;SDS011;30039;51.462;6.892;2022-11-30T10:44:35;35.10;;;16.98;;
44328;SDS011;30039;51.462;6.892;2022-11-30T10:47:25;39.43;;;16.37;;
44328;SDS011;30039;51.462;6.892;2022-11-30T10:50:13;40.47;;;17.88;;
44328;SDS011;30039;51.462;6.892;2022-11-30T10:53:00;37.38;;;16.58;;
44328;SDS011;30039;51.462;6.892;2022-11-30T10:55:57;37.88;;;17.48;;
44328;SDS011;30039;51.462;6.892;2022-11-30T11:01:34;36.08;;;17.40;;
44328;SDS011;30039;51.462;6.892;2022-11-30T11:04:21;36.22;;;16.58;;
44328;SDS011;30039;51.462;6.892;2022-11-30T11:07:08;41.63;;;17.48;;
44328;SDS011;30039;51.462;6.892;2022-11-30T11:09:54;36.33;;;17.45;;
44328;SDS011;30039;51.462;6.892;2022-11-30T11:12:40;34.45;;;17.30;;
44328;SDS011;30039;51.462;6.892;2022-11-30T11:15:32;38.10;;;17.75;;
44328;SDS011;30039;51.462;6.892;2022-11-30T11:18:20;34.30;;;16.77;;
44328;SDS011;30039;51.462;6.892;2022-11-30T11:23:53;33.75;;;17.60;;
44328;SDS011;30039;51.462;6.892;2022-11-30T11:26:46;33.63;;;16.60;;
44328;SDS011;30039;51.462;6.892;2022-11-30T11:29:33;40.38;;;18.42;;
44328;SDS011;30039;51.462;6.892;2022-11-30T11:32:23;35.38;;;17.90;;
44328;SDS011;30039;51.462;6.892;2022-11-30T11:38:44;35.35;;;17.73;;
44328;SDS011;30039;51.462;6.892;2022-11-30T11:41:30;36.50;;;17.38;;
44328;SDS011;30039;51.462;6.892;2022-11-30T11:44:19;43.75;;;18.77;;
44328;SDS011;30039;51.462;6.892;2022-11-30T11:47:06;37.13;;;18.40;;
44328;SDS011;30039;51.462;6.892;2022-11-30T11:53:18;35.40;;;16.02;;
44328;SDS011;30039;51.462;6.892;2022-11-30T12:05:03;38.10;;;16.05;;
44328;SDS011;30039;51.462;6.892;2022-11-30T12:10:55;32.83;;;16.25;;
44328;SDS011;30039;51.462;6.892;2022-11-30T12:13:44;36.83;;;16.15;;
44328;SDS011;30039;51.462;6.892;2022-11-30T12:19:28;37.33;;;17.00;;
44328;SDS011;30039;51.462;6.892;2022-11-30T12:25:25;36.00;;;15.73;;
44328;SDS011;30039;51.462;6.892;2022-11-30T12:39:49;35.03;;;16.58;;
44328;SDS011;30039;51.462;6.892;2022-11-30T12:48:24;51.28;;;18.50;;
44328;SDS011;30039;51.462;6.892;2022-11-30T12:51:16;42.53;;;18.45;;
44328;SDS011;30039;51.462;6.892;2022-11-30T12:54:12;36.35;;;16.98;;
44328;SDS011;30039;51.462;6.892;2022-11-30T12:57:09;37.67;;;16.50;;
44328;SDS011;30039;51.462;6.892;2022-11-30T13:08:46;31.33;;;15.38;;
44328;SDS011;30039;51.462;6.892;2022-11-30T13:12:01;34.95;;;15.55;;
44328;SDS011;30039;51.462;6.892;2022-11-30T13:17:38;28.55;;;15.45;;
44328;SDS011;30039;51.462;6.892;2022-11-30T13:20:29;28.40;;;14.38;;
44328;SDS011;30039;51.462;6.892;2022-11-30T13:23:23;27.02;;;13.95;;
44328;SDS011;30039;51.462;6.892;2022-11-30T13:26:25;25.45;;;14.18;;
44328;SDS011;30039;51.462;6.892;2022-11-30T13:32:14;24.75;;;13.35;;
44328;SDS011;30039;51.462;6.892;2022-11-30T13:38:15;23.65;;;13.40;;
44328;SDS011;30039;51.462;6.892;2022-11-30T13:41:03;22.95;;;13.15;;
44328;SDS011;30039;51.462;6.892;2022-11-30T13:43:49;22.30;;;12.15;;
44328;SDS011;30039;51.462;6.892;2022-11-30T13:46:35;24.10;;;13.18;;
44328;SDS011;30039;51.462;6.892;2022-11-30T13:49:26;22.77;;;12.75;;
44328;SDS011;30039;51.462;6.892;2022-11-30T13:52:12;21.42;;;11.98;;
44328;SDS011;30039;51.462;6.892;2022-11-30T13:54:58;22.63;;;12.43;;
44328;SDS011;30039;51.462;6.892;2022-11-30T14:09:13;17.38;;;10.35;;
44328;SDS011;30039;51.462;6.892;2022-11-30T14:12:04;19.90;;;10.82;;
44328;SDS011;30039;51.462;6.892;2022-11-30T14:15:27;19.60;;;10.00;;
44328;SDS011;30039;51.462;6.892;2022-11-30T14:21:39;15.77;;;10.13;;
44328;SDS011;30039;51.462;6.892;2022-11-30T14:24:19;17.80;;;10.13;;
44328;SDS011;30039;51.462;6.892;2022-11-30T14:27:08;23.40;;;11.40;;
44328;SDS011;30039;51.462;6.892;2022-11-30T14:30:00;18.40;;;11.45;;
44328;SDS011;30039;51.462;6.892;2022-11-30T14:32:54;17.52;;;10.30;;
44328;SDS011;30039;51.462;6.892;2022-11-30T14:35:42;20.92;;;11.50;;
44328;SDS011;30039;51.462;6.892;2022-11-30T14:38:29;20.23;;;10.27;;
44328;SDS011;30039;51.462;6.892;2022-11-30T14:41:23;18.60;;;11.00;;
44328;SDS011;30039;51.462;6.892;2022-11-30T14:44:12;17.77;;;10.10;;
44328;SDS011;30039;51.462;6.892;2022-11-30T14:50:24;17.70;;;10.77;;
44328;SDS011;30039;51.462;6.892;2022-11-30T14:53:18;20.60;;;10.98;;
44328;SDS011;30039;51.462;6.892;2022-11-30T14:56:23;18.05;;;10.18;;
44328;SDS011;30039;51.462;6.892;2022-11-30T15:02:02;21.88;;;11.38;;
44328;SDS011;30039;51.462;6.892;2022-11-30T15:04:50;19.88;;;11.02;;
44328;SDS011;30039;51.462;6.892;2022-11-30T15:07:36;20.50;;;11.65;;
44328;SDS011;30039;51.462;6.892;2022-11-30T15:10:23;24.05;;;12.07;;
44328;SDS011;30039;51.462;6.892;2022-11-30T15:13:12;23.23;;;12.25;;
44328;SDS011;30039;51.462;6.892;2022-11-30T15:15:59;21.05;;;11.20;;
44328;SDS011;30039;51.462;6.892;2022-11-30T15:18:45;24.58;;;11.25;;
44328;SDS011;30039;51.462;6.892;2022-11-30T15:21:31;19.55;;;10.80;;
44328;SDS011;30039;51.462;6.892;2022-11-30T15:24:17;19.67;;;11.45;;
44328;SDS011;30039;51.462;6.892;2022-11-30T15:27:04;21.02;;;10.90;;
44328;SDS011;30039;51.462;6.892;2022-11-30T15:29:56;20.92;;;11.18;;
44328;SDS011;30039;51.462;6.892;2022-11-30T15:32:45;18.55;;;10.65;;
44328;SDS011;30039;51.462;6.892;2022-11-30T15:35:32;19.38;;;10.75;;
44328;SDS011;30039;51.462;6.892;2022-11-30T15:38:27;22.60;;;11.43;;
44328;SDS011;30039;51.462;6.892;2022-11-30T15:41:19;25.23;;;11.55;;
44328;SDS011;30039;51.462;6.892;2022-11-30T15:44:15;24.20;;;12.40;;
44328;SDS011;30039;51.462;6.892;2022-11-30T15:47:13;22.52;;;12.57;;
44328;SDS011;30039;51.462;6.892;2022-11-30T15:59:24;22.20;;;12.35;;
44328;SDS011;30039;51.462;6.892;2022-11-30T16:02:02;24.10;;;11.98;;
44328;SDS011;30039;51.462;6.892;2022-11-30T16:07:57;24.70;;;13.05;;
44328;SDS011;30039;51.462;6.892;2022-11-30T16:10:47;24.05;;;13.10;;
44328;SDS011;30039;51.462;6.892;2022-11-30T16:13:33;31.80;;;15.27;;
44328;SDS011;30039;51.462;6.892;2022-11-30T16:16:19;29.45;;;14.50;;
44328;SDS011;30039;51.462;6.892;2022-11-30T16:19:06;23.00;;;13.63;;
44328;SDS011;30039;51.462;6.892;2022-11-30T16:21:52;29.52;;;16.35;;
44328;SDS011;30039;51.462;6.892;2022-11-30T16:24:38;34.70;;;17.38;;
44328;SDS011;30039;51.462;6.892;2022-11-30T16:27:23;30.48;;;14.35;;
44328;SDS011;30039;51.462;6.892;2022-11-30T16:30:13;24.60;;;12.77;;
44328;SDS011;30039;51.462;6.892;2022-11-30T16:33:00;25.73;;;13.63;;
44328;SDS011;30039;51.462;6.892;2022-11-30T16:39:00;24.25;;;11.88;;
44328;SDS011;30039;51.462;6.892;2022-11-30T16:41:46;27.27;;;11.98;;
44328;SDS011;30039;51.462;6.892;2022-11-30T16:44:34;27.38;;;13.75;;
44328;SDS011;30039;51.462;6.892;2022-11-30T16:47:19;23.55;;;12.40;;
44328;SDS011;30039;51.462;6.892;2022-11-30T16:50:06;25.63;;;13.35;;
44328;SDS011;30039;51.462;6.892;2022-11-30T16:52:51;25.33;;;13.02;;
44328;SDS011;30039;51.462;6.892;2022-11-30T16:55:37;22.70;;;11.65;;
44328;SDS011;30039;51.462;6.892;2022-11-30T16:58:23;26.60;;;12.68;;
44328;SDS011;30039;51.462;6.892;2022-11-30T17:01:15;25.85;;;12.73;;
44328;SDS011;30039;51.462;6.892;2022-11-30T17:04:05;24.45;;;11.98;;
44328;SDS011;30039;51.462;6.892;2022-11-30T17:06:52;25.80;;;12.38;;
44328;SDS011;30039;51.462;6.892;2022-11-30T17:09:37;24.05;;;12.70;;
44328;SDS011;30039;51.462;6.892;2022-11-30T17:12:23;23.77;;;11.90;;
44328;SDS011;30039;51.462;6.892;2022-11-30T17:15:16;24.27;;;12.30;;
44328;SDS011;30039;51.462;6.892;2022-11-30T17:18:09;22.58;;;11.63;;
44328;SDS011;30039;51.462;6.892;2022-11-30T17:20:58;21.67;;;11.48;;
44328;SDS011;30039;51.462;6.892;2022-11-30T17:23:44;25.80;;;12.00;;
44328;SDS011;30039;51.462;6.892;2022-11-30T17:26:33;25.10;;;11.65;;
44328;SDS011;30039;51.462;6.892;2022-11-30T17:29:20;20.90;;;10.68;;
44328;SDS011;30039;51.462;6.892;2022-11-30T17:32:06;22.55;;;11.60;;
44328;SDS011;30039;51.462;6.892;2022-11-30T17:34:52;21.23;;;10.80;;
44328;SDS011;30039;51.462;6.892;2022-11-30T17:37:37;16.55;;;9.98;;
44328;SDS011;30039;51.462;6.892;2022-11-30T17:40:23;21.35;;;10.63;;
44328;SDS011;30039;51.462;6.892;2022-11-30T17:43:09;17.92;;;9.88;;
44328;SDS011;30039;51.462;6.892;2022-11-30T17:45:55;20.25;;;9.70;;
44328;SDS011;30039;51.462;6.892;2022-11-30T17:48:41;17.02;;;9.23;;
44328;SDS011;30039;51.462;6.892;2022-11-30T17:51:28;14.88;;;8.40;;
44328;SDS011;30039;51.462;6.892;2022-11-30T17:54:13;18.85;;;9.05;;
44328;SDS011;30039;51.462;6.892;2022-11-30T17:56:59;18.48;;;9.43;;
44328;SDS011;30039;51.462;6.892;2022-11-30T17:59:45;18.00;;;8.77;;
44328;SDS011;30039;51.462;6.892;2022-11-30T18:02:30;15.95;;;8.95;;
44328;SDS011;30039;51.462;6.892;2022-11-30T18:05:16;16.88;;;8.63;;
44328;SDS011;30039;51.462;6.892;2022-11-30T18:08:03;16.38;;;9.05;;
44328;SDS011;30039;51.462;6.892;2022-11-30T18:10:49;15.00;;;8.35;;
44328;SDS011;30039;51.462;6.892;2022-11-30T18:13:34;16.40;;;8.82;;
44328;SDS011;30039;51.462;6.892;2022-11-30T18:16:22;13.88;;;8.00;;
44328;SDS011;30039;51.462;6.892;2022-11-30T18:19:08;16.60;;;8.38;;
44328;SDS011;30039;51.462;6.892;2022-11-30T18:21:59;15.77;;;8.43;;
44328;SDS011;30039;51.462;6.892;2022-11-30T18:24:45;12.10;;;7.70;;
44328;SDS011;30039;51.462;6.892;2022-11-30T18:27:31;15.57;;;8.52;;
44328;SDS011;30039;51.462;6.892;2022-11-30T18:30:16;16.58;;;8.85;;